CNS weather

Cairns International Airport
Cairns, Queensland, Australia

Public forecast

Using degrees Celsius for public forecast. Weather courtesy of forecast.io.

METAR (pilot weather report)

Retrieved 2017/06/28 04:30 UTC (26 minutes ago):

YBCS 280430Z 16009KT 9999 SCT023 BKN035 26/20 Q1016 NOSIG

TAF (pilot weather forecast)

Forecast is more than 12 hours old.

Retrieved 2017/06/27 00:00 UTC (1 day ago):

TAF YBCS 272349Z 2800/2824 13014KT 9999 FEW025 SCT045 FM280800 17010KT 9999 -SHRA SCT022 BKN035 FM282300 13014KT 9999 SCT025 BKN045 INTER 2810/2824 4000 -SHRA FEW008 BKN015